createdAt,value
2017-12-13T00:00:34.772Z,101030.14
2017-12-13T00:03:03.251Z,101022.70
2017-12-13T00:05:31.666Z,101027.69
2017-12-13T00:08:00.080Z,101038.88
2017-12-13T00:10:28.465Z,101038.88
2017-12-13T00:12:56.826Z,101031.83
2017-12-13T00:15:25.187Z,101035.05
2017-12-13T00:17:54.304Z,101039.65
2017-12-13T00:20:23.090Z,101033.71
2017-12-13T00:22:51.471Z,101035.76
2017-12-13T00:25:19.900Z,101024.30
2017-12-13T00:27:48.387Z,101031.75
2017-12-13T00:30:16.840Z,101025.42
2017-12-13T00:32:45.285Z,101023.97
2017-12-13T00:35:13.737Z,101024.95
2017-12-13T00:37:42.330Z,101026.01
2017-12-13T00:40:11.855Z,101022.62
2017-12-13T00:42:40.752Z,101030.86
2017-12-13T00:45:09.535Z,101029.33
2017-12-13T00:47:38.072Z,101029.16
2017-12-13T00:50:10.365Z,101020.57
2017-12-13T00:52:38.812Z,101022.91
2017-12-13T00:55:07.324Z,101023.05
2017-12-13T00:57:35.822Z,101026.11
2017-12-13T01:00:05.211Z,101021.05
2017-12-13T01:02:34.576Z,101037.30
2017-12-13T01:05:03.298Z,101034.05
2017-12-13T01:07:31.890Z,101040.69
2017-12-13T01:10:01.111Z,101046.96
2017-12-13T01:12:29.562Z,101048.21
2017-12-13T01:14:58.042Z,101041.03
2017-12-13T01:17:26.480Z,101043.75
2017-12-13T01:19:55.669Z,101042.94
2017-12-13T01:22:24.102Z,101044.78
2017-12-13T01:24:52.585Z,101049.02
2017-12-13T01:27:22.138Z,101050.37
2017-12-13T01:29:50.520Z,101042.92
2017-12-13T01:32:19.038Z,101042.91
2017-12-13T01:34:47.537Z,101051.63
2017-12-13T01:37:15.914Z,101065.42
2017-12-13T01:39:44.349Z,101065.53
2017-12-13T01:42:12.878Z,101057.62
2017-12-13T01:44:41.341Z,101059.16
2017-12-13T01:47:10.502Z,101053.70
2017-12-13T01:49:38.999Z,101053.18
2017-12-13T01:52:07.500Z,101054.97
2017-12-13T01:54:35.904Z,101055.48
2017-12-13T01:57:04.493Z,101057.75
2017-12-13T01:59:32.997Z,101052.69
2017-12-13T02:02:01.486Z,101059.50
2017-12-13T02:04:29.914Z,101064.72
2017-12-13T02:06:58.386Z,101065.42
2017-12-13T02:09:26.829Z,101054.63
2017-12-13T02:11:55.499Z,101056.93
2017-12-13T02:14:24.783Z,101048.05
2017-12-13T02:16:53.160Z,101048.95
2017-12-13T02:19:21.663Z,101042.62
2017-12-13T02:21:50.117Z,101033.24
2017-12-13T02:24:18.611Z,101021.08
2017-12-13T02:26:47.027Z,101026.17
2017-12-13T02:29:15.551Z,101025.82
2017-12-13T02:31:43.962Z,101024.80
2017-12-13T02:34:13.742Z,101017.16
2017-12-13T02:36:42.261Z,101004.30
2017-12-13T02:39:10.645Z,101001.48
2017-12-13T02:41:39.931Z,100992.11
2017-12-13T02:44:08.377Z,100996.92
2017-12-13T02:46:37.614Z,100989.32
2017-12-13T02:49:06.087Z,100986.13
2017-12-13T02:51:34.500Z,100975.11
2017-12-13T02:54:02.902Z,100973.34
2017-12-13T02:56:31.855Z,100969.64
2017-12-13T02:59:01.001Z,100969.41
2017-12-13T03:01:29.525Z,100970.10
2017-12-13T03:03:57.981Z,100967.12
2017-12-13T03:06:26.488Z,100956.07
2017-12-13T03:08:54.969Z,100966.31
2017-12-13T03:11:23.605Z,100961.12
2017-12-13T03:13:52.138Z,100956.13
2017-12-13T03:16:20.523Z,100955.20
2017-12-13T03:18:50.227Z,100940.63
2017-12-13T03:21:18.702Z,100940.77
2017-12-13T03:23:47.177Z,100932.69
2017-12-13T03:26:15.773Z,100929.70
2017-12-13T03:28:44.277Z,100932.33
2017-12-13T03:31:12.629Z,100933.46
2017-12-13T03:33:42.140Z,100914.98
2017-12-13T03:36:10.624Z,100919.81
2017-12-13T03:38:39.107Z,100924.72
2017-12-13T03:41:07.617Z,100912.81
2017-12-13T03:43:36.863Z,100910.93
2017-12-13T03:46:05.269Z,100907.60
2017-12-13T03:48:34.578Z,100899.70
2017-12-13T03:51:03.036Z,100908.64
2017-12-13T03:53:31.531Z,100899.38
2017-12-13T03:56:00.119Z,100898.34
2017-12-13T03:58:28.585Z,100897.80
2017-12-13T04:00:57.128Z,100895.47
2017-12-13T04:03:25.870Z,100898.16
2017-12-13T04:05:54.271Z,100890.06
2017-12-13T04:08:23.528Z,100884.30
2017-12-13T04:10:52.074Z,100891.06
2017-12-13T04:13:20.538Z,100891.97
2017-12-13T04:15:49.852Z,100891.77
2017-12-13T04:18:18.331Z,100890.98
2017-12-13T04:20:48.426Z,100884.22
2017-12-13T04:23:17.619Z,100885.39
2017-12-13T04:25:46.462Z,100881.64
2017-12-13T04:28:14.993Z,100872.89
2017-12-13T04:30:43.438Z,100880.55
2017-12-13T04:33:12.069Z,100872.36
2017-12-13T04:35:41.292Z,100877.13
2017-12-13T04:38:09.836Z,100869.72
2017-12-13T04:40:39.140Z,100869.64
2017-12-13T04:43:08.440Z,100872.73
2017-12-13T04:45:37.651Z,100868.80
2017-12-13T04:48:07.298Z,100864.84
2017-12-13T04:50:35.711Z,100858.75
2017-12-13T04:53:04.192Z,100857.77
2017-12-13T04:55:32.792Z,100863.13
2017-12-13T04:58:01.202Z,100854.52
2017-12-13T05:00:30.475Z,100851.27
2017-12-13T05:02:58.971Z,100849.63
2017-12-13T05:05:28.224Z,100844.80
2017-12-13T05:07:56.742Z,100844.48
2017-12-13T05:10:26.453Z,100833.39
2017-12-13T05:12:55.073Z,100835.72
2017-12-13T05:15:23.514Z,100827.84
2017-12-13T05:17:51.996Z,100831.70
2017-12-13T05:20:20.394Z,100827.67
2017-12-13T05:22:49.543Z,100822.80
2017-12-13T05:25:17.892Z,100810.88
2017-12-13T05:27:46.314Z,100815.41
2017-12-13T05:30:14.722Z,100807.83
2017-12-13T05:32:43.502Z,100798.55
2017-12-13T05:35:11.955Z,100808.31
2017-12-13T05:37:40.440Z,100801.03
2017-12-13T05:40:08.838Z,100782.83
2017-12-13T05:42:37.330Z,100791.73
2017-12-13T05:45:05.801Z,100777.27
2017-12-13T05:47:34.411Z,100794.06
2017-12-13T05:50:03.693Z,100784.40
2017-12-13T05:52:32.181Z,100780.29
2017-12-13T05:55:00.966Z,100772.28
2017-12-13T05:57:29.446Z,100769.17
2017-12-13T05:59:57.885Z,100760.16
2017-12-13T06:02:28.194Z,100758.96
2017-12-13T06:04:56.747Z,100767.58
2017-12-13T06:07:26.390Z,100752.61
2017-12-13T06:09:55.042Z,100746.94
2017-12-13T06:12:24.547Z,100762.05
2017-12-13T06:14:53.029Z,100753.27
2017-12-13T06:17:21.692Z,100751.27
2017-12-13T06:19:50.195Z,100753.38
2017-12-13T06:22:18.610Z,100746.47
2017-12-13T06:24:47.092Z,100750.73
2017-12-13T06:27:15.605Z,100742.67
2017-12-13T06:29:44.152Z,100737.45
2017-12-13T06:32:12.598Z,100733.90
2017-12-13T06:34:41.084Z,100724.78
2017-12-13T06:37:09.568Z,100720.70
2017-12-13T06:39:38.456Z,100725.08
2017-12-13T06:42:06.936Z,100714.67
2017-12-13T06:44:35.385Z,100723.66
2017-12-13T06:47:03.838Z,100718.51
2017-12-13T06:49:32.290Z,100718.45
2017-12-13T06:52:01.475Z,100723.08
2017-12-13T06:54:30.030Z,100707.75
2017-12-13T06:56:58.391Z,100708.48
2017-12-13T06:59:26.817Z,100707.84
2017-12-13T07:01:56.015Z,100686.83
2017-12-13T07:04:24.419Z,100691.59
2017-12-13T07:06:53.622Z,100684.39
2017-12-13T07:09:22.078Z,100686.83
2017-12-13T07:11:50.455Z,100681.41
2017-12-13T07:14:19.691Z,100679.81
2017-12-13T07:16:48.039Z,100676.74
2017-12-13T07:19:16.516Z,100664.69
2017-12-13T07:21:44.995Z,100669.69
2017-12-13T07:24:13.739Z,100667.82
2017-12-13T07:26:42.156Z,100659.77
2017-12-13T07:29:10.548Z,100665.73
2017-12-13T07:31:39.026Z,100655.23
2017-12-13T07:34:07.510Z,100656.39
2017-12-13T07:36:35.991Z,100657.71
2017-12-13T07:39:04.551Z,100652.78
2017-12-13T07:41:33.670Z,100652.38
2017-12-13T07:44:02.024Z,100636.44
2017-12-13T07:46:30.730Z,100640.08
2017-12-13T07:48:59.156Z,100632.05
2017-12-13T07:51:27.524Z,100622.84
2017-12-13T07:53:56.826Z,100623.38
2017-12-13T07:56:25.447Z,100610.63
2017-12-13T07:58:53.845Z,100608.32
2017-12-13T08:01:22.252Z,100600.94
2017-12-13T08:03:50.623Z,100603.20
2017-12-13T08:06:19.109Z,100594.80
2017-12-13T08:08:47.552Z,100595.08
2017-12-13T08:11:16.084Z,100588.23
2017-12-13T08:13:44.454Z,100581.49
2017-12-13T08:16:13.748Z,100579.72
2017-12-13T08:18:42.120Z,100572.79
2017-12-13T08:21:10.500Z,100572.21
2017-12-13T08:23:38.886Z,100576.00
2017-12-13T08:26:08.198Z,100551.95
2017-12-13T08:28:37.463Z,100546.53
2017-12-13T08:31:06.474Z,100552.20
2017-12-13T08:33:34.894Z,100544.12
2017-12-13T08:36:03.412Z,100538.36
2017-12-13T08:38:31.927Z,100518.76
2017-12-13T08:41:00.313Z,100516.36
2017-12-13T08:43:38.928Z,100515.31
2017-12-13T08:46:07.385Z,100499.00
2017-12-13T08:48:35.913Z,100499.11
2017-12-13T08:51:04.887Z,100499.16
2017-12-13T08:53:33.278Z,100488.45
2017-12-13T08:56:01.651Z,100496.23
2017-12-13T08:58:29.991Z,100493.11
2017-12-13T09:00:58.402Z,100485.45
2017-12-13T09:03:26.791Z,100470.92
2017-12-13T09:05:56.001Z,100489.47
2017-12-13T09:08:25.188Z,100473.02
2017-12-13T09:10:54.482Z,100461.20
2017-12-13T09:13:23.241Z,100466.10
2017-12-13T09:15:51.660Z,100464.31
2017-12-13T09:18:20.824Z,100461.66
2017-12-13T09:20:49.234Z,100471.85
2017-12-13T09:23:17.712Z,100469.44
2017-12-13T09:25:46.079Z,100451.45
2017-12-13T09:28:14.587Z,100462.37
2017-12-13T09:30:43.858Z,100452.05
2017-12-13T09:33:12.356Z,100441.03
2017-12-13T09:35:40.902Z,100442.20
2017-12-13T09:38:12.115Z,100427.30
2017-12-13T09:40:40.550Z,100423.05
2017-12-13T09:43:09.014Z,100412.08
2017-12-13T09:45:37.544Z,100413.99
2017-12-13T09:48:05.927Z,100401.98
2017-12-13T09:50:34.726Z,100404.67
2017-12-13T09:53:03.270Z,100393.53
2017-12-13T09:55:32.498Z,100388.81
2017-12-13T09:58:01.477Z,100396.20
2017-12-13T10:00:29.958Z,100387.84
2017-12-13T10:02:58.440Z,100396.97
2017-12-13T10:05:27.643Z,100368.23
2017-12-13T10:07:56.133Z,100362.27
2017-12-13T10:10:24.566Z,100357.74
2017-12-13T10:12:53.039Z,100346.64
2017-12-13T10:15:21.484Z,100348.50
2017-12-13T10:17:50.664Z,100343.02
2017-12-13T10:20:19.445Z,100332.92
2017-12-13T10:22:47.947Z,100327.30
2017-12-13T10:25:17.225Z,100335.17
2017-12-13T10:27:45.688Z,100321.39
2017-12-13T10:30:14.127Z,100327.38
2017-12-13T10:32:42.565Z,100310.61
2017-12-13T10:35:11.043Z,100302.77
2017-12-13T10:37:39.486Z,100304.92
2017-12-13T10:40:08.016Z,100293.26
2017-12-13T10:42:36.878Z,100292.83
2017-12-13T10:45:05.288Z,100282.72
2017-12-13T10:47:49.557Z,100269.80
2017-12-13T10:50:18.723Z,100279.19
2017-12-13T10:52:47.141Z,100260.10
2017-12-13T10:55:16.317Z,100258.09
2017-12-13T10:57:44.798Z,100239.67
2017-12-13T11:00:13.263Z,100228.05
2017-12-13T11:02:41.877Z,100234.39
2017-12-13T11:05:11.168Z,100225.20
2017-12-13T11:07:39.576Z,100218.12
2017-12-13T11:10:09.027Z,100193.94
2017-12-13T11:12:37.493Z,100180.84
2017-12-13T11:15:05.932Z,100210.63
2017-12-13T11:17:34.374Z,100168.04
2017-12-13T11:20:02.782Z,100168.28
2017-12-13T11:22:31.226Z,100148.20
2017-12-13T11:24:59.866Z,100140.06
2017-12-13T11:27:28.334Z,100160.64
2017-12-13T11:29:56.709Z,100143.25
2017-12-13T11:32:25.179Z,100149.34
2017-12-13T11:34:53.561Z,100110.53
2017-12-13T11:37:22.744Z,100117.87
2017-12-13T11:39:51.265Z,100086.85
2017-12-13T11:42:19.855Z,100078.64
2017-12-13T11:44:49.147Z,100065.30
2017-12-13T11:47:19.143Z,100063.81
2017-12-13T11:49:47.638Z,100048.63
2017-12-13T11:52:16.111Z,100040.22
2017-12-13T11:54:47.575Z,100020.27
2017-12-13T11:57:16.757Z,100022.53
2017-12-13T11:59:45.217Z,100011.11
2017-12-13T12:02:13.600Z,99999.86
2017-12-13T12:04:42.066Z,100008.56
2017-12-13T12:07:10.785Z,99993.60
2017-12-13T12:09:39.483Z,100009.09
2017-12-13T12:12:08.780Z,99976.80
2017-12-13T12:14:38.091Z,99955.34
2017-12-13T12:17:07.277Z,99967.80
2017-12-13T12:19:36.171Z,99952.99
2017-12-13T12:22:04.690Z,99954.68
2017-12-13T12:24:34.364Z,99934.77
2017-12-13T12:27:02.818Z,99946.20
2017-12-13T12:29:31.324Z,99920.73
2017-12-13T12:32:00.096Z,99914.78
2017-12-13T12:34:28.559Z,99896.30
2017-12-13T12:36:56.950Z,99909.80
2017-12-13T12:39:26.282Z,99901.41
2017-12-13T12:41:54.725Z,99876.60
2017-12-13T12:44:23.152Z,99881.56
2017-12-13T12:46:52.340Z,99844.92
2017-12-13T12:49:20.814Z,99829.67
2017-12-13T12:51:49.268Z,99842.95
2017-12-13T12:54:18.289Z,99850.02
2017-12-13T12:56:46.681Z,99841.39
2017-12-13T12:59:15.137Z,99816.04
2017-12-13T13:01:43.574Z,99818.30
2017-12-13T13:04:12.022Z,99817.51
2017-12-13T13:06:41.216Z,99814.20
2017-12-13T13:09:09.796Z,99815.15
2017-12-13T13:11:38.283Z,99790.05
2017-12-13T13:14:07.478Z,99782.27
2017-12-13T13:16:36.227Z,99771.08
2017-12-13T13:19:04.617Z,99770.05
2017-12-13T13:21:33.942Z,99768.34
2017-12-13T13:24:02.427Z,99755.42
2017-12-13T13:26:30.909Z,99757.58
2017-12-13T13:28:59.370Z,99744.84
2017-12-13T13:31:27.768Z,99734.42
2017-12-13T13:33:56.170Z,99721.64
2017-12-13T13:36:24.542Z,99721.22
2017-12-13T13:38:53.065Z,99710.47
2017-12-13T13:41:21.500Z,99707.94
2017-12-13T13:43:50.620Z,99700.68
2017-12-13T13:46:19.797Z,99688.23
2017-12-13T13:48:51.107Z,99696.63
2017-12-13T13:51:31.333Z,99670.04
2017-12-13T13:53:59.753Z,99674.52
2017-12-13T13:56:28.196Z,99693.48
2017-12-13T13:58:57.079Z,99674.61
2017-12-13T14:01:26.314Z,99621.45
2017-12-13T14:03:54.729Z,99637.53
2017-12-13T14:06:23.214Z,99654.17
2017-12-13T14:08:51.599Z,99636.95
2017-12-13T14:11:20.794Z,99637.84
2017-12-13T14:13:49.192Z,99626.98
2017-12-13T14:16:18.453Z,99623.88
2017-12-13T14:18:46.921Z,99611.95
2017-12-13T14:21:15.564Z,99606.17
2017-12-13T14:23:43.912Z,99597.29
2017-12-13T14:26:12.278Z,99600.20
2017-12-13T14:28:40.710Z,99591.73
2017-12-13T14:31:09.047Z,99591.73
2017-12-13T14:33:37.430Z,99584.77
2017-12-13T14:36:05.880Z,99574.55
2017-12-13T14:38:34.289Z,99576.16
2017-12-13T14:41:02.668Z,99562.34
2017-12-13T14:43:31.445Z,99561.84
2017-12-13T14:45:59.837Z,99553.20
2017-12-13T14:48:28.307Z,99548.30
2017-12-13T14:50:56.817Z,99525.68
2017-12-13T14:53:25.892Z,99534.05
2017-12-13T14:55:54.329Z,99532.02
2017-12-13T14:58:22.861Z,99526.01
2017-12-13T15:00:51.364Z,99525.64
2017-12-13T15:03:20.515Z,99514.00
2017-12-13T15:05:48.958Z,99515.77
2017-12-13T15:08:33.173Z,99514.33
2017-12-13T15:11:01.627Z,99503.65
2017-12-13T15:13:29.975Z,99491.37
2017-12-13T15:15:58.457Z,99498.26
2017-12-13T15:18:26.873Z,99487.92
2017-12-13T15:20:55.345Z,99491.30
2017-12-13T15:23:23.678Z,99479.73
2017-12-13T15:25:53.168Z,99476.07
2017-12-13T15:28:21.658Z,99471.97
2017-12-13T15:30:50.982Z,99460.70
2017-12-13T15:33:19.455Z,99456.33
2017-12-13T15:35:48.627Z,99457.75
2017-12-13T15:38:17.007Z,99436.02
2017-12-13T15:40:45.655Z,99434.28
2017-12-13T15:43:14.110Z,99432.62
2017-12-13T15:45:42.554Z,99425.83
2017-12-13T15:48:11.238Z,99418.27
2017-12-13T15:50:41.373Z,99402.97
2017-12-13T15:53:09.831Z,99426.22
2017-12-13T15:55:39.173Z,99406.15
2017-12-13T15:58:08.380Z,99422.20
2017-12-13T16:00:37.645Z,99388.73
2017-12-13T16:03:06.018Z,99378.41
2017-12-13T16:05:34.440Z,99385.30
2017-12-13T16:08:02.824Z,99378.96
2017-12-13T16:10:31.668Z,99383.09
2017-12-13T16:13:00.048Z,99365.59
2017-12-13T16:15:28.532Z,99366.25
2017-12-13T16:17:57.752Z,99369.51
2017-12-13T16:20:26.177Z,99361.44
2017-12-13T16:22:54.567Z,99362.60
2017-12-13T16:25:22.933Z,99348.03
2017-12-13T16:27:51.320Z,99354.80
2017-12-13T16:30:19.618Z,99349.45
2017-12-13T16:32:48.420Z,99337.23
2017-12-13T16:35:36.413Z,99331.48
2017-12-13T16:38:04.771Z,99323.84
2017-12-13T16:40:33.238Z,99323.76
2017-12-13T16:43:02.518Z,99322.81
2017-12-13T16:45:30.933Z,99314.72
2017-12-13T16:47:59.488Z,99305.84
2017-12-13T16:50:27.858Z,99302.94
2017-12-13T16:52:56.748Z,99292.97
2017-12-13T16:55:25.149Z,99299.95
2017-12-13T16:57:54.436Z,99283.08
2017-12-13T17:00:23.015Z,99282.34
2017-12-13T17:02:51.495Z,99280.63
2017-12-13T17:05:19.979Z,99268.45
2017-12-13T17:07:48.488Z,99266.06
2017-12-13T17:10:17.020Z,99262.94
2017-12-13T17:12:45.525Z,99259.34
2017-12-13T17:15:14.515Z,99263.86
2017-12-13T17:17:43.052Z,99250.19
2017-12-13T17:20:11.494Z,99247.89
2017-12-13T17:22:39.873Z,99246.20
2017-12-13T17:25:08.249Z,99237.54
2017-12-13T17:27:36.720Z,99226.17
2017-12-13T17:30:05.293Z,99234.80
2017-12-13T17:32:33.788Z,99227.94
2017-12-13T17:35:02.195Z,99212.34
2017-12-13T17:37:30.876Z,99208.66
2017-12-13T17:39:59.391Z,99223.63
2017-12-13T17:42:28.639Z,99209.49
2017-12-13T17:44:57.120Z,99208.57
2017-12-13T17:47:25.593Z,99201.02
2017-12-13T17:49:54.188Z,99198.00
2017-12-13T17:52:22.686Z,99193.41
2017-12-13T17:54:51.963Z,99196.71
2017-12-13T17:57:20.356Z,99185.44
2017-12-13T17:59:49.541Z,99178.12
2017-12-13T18:02:17.888Z,99166.37
2017-12-13T18:04:46.248Z,99167.00
2017-12-13T18:07:14.788Z,99156.80
2017-12-13T18:09:43.271Z,99153.67
2017-12-13T18:12:11.671Z,99152.34
2017-12-13T18:14:40.890Z,99147.20
2017-12-13T18:17:09.431Z,99133.72
2017-12-13T18:19:37.883Z,99132.20
2017-12-13T18:22:06.755Z,99128.13
2017-12-13T18:24:35.189Z,99119.51
2017-12-13T18:27:12.292Z,99125.34
2017-12-13T18:29:41.506Z,99114.34
2017-12-13T18:32:09.872Z,99124.53
2017-12-13T18:34:39.128Z,99110.62
2017-12-13T18:37:08.346Z,99108.36
2017-12-13T18:39:36.780Z,99095.17
2017-12-13T18:42:05.498Z,99090.23
2017-12-13T18:44:33.894Z,99092.51
2017-12-13T18:47:02.478Z,99077.95
2017-12-13T18:49:30.957Z,99089.08
2017-12-13T18:51:59.445Z,99087.03
2017-12-13T18:54:27.841Z,99091.47
2017-12-13T18:56:57.022Z,99074.64
2017-12-13T18:59:25.509Z,99075.11
2017-12-13T19:01:53.905Z,99073.42
2017-12-13T19:04:23.400Z,99075.66
2017-12-13T19:06:51.888Z,99070.47
2017-12-13T19:09:21.084Z,99073.00
2017-12-13T19:11:49.540Z,99058.34
2017-12-13T19:14:18.002Z,99056.98
2017-12-13T19:16:52.463Z,99048.40
2017-12-13T19:19:21.046Z,99041.95
2017-12-13T19:21:49.492Z,99037.54
2017-12-13T19:24:18.100Z,99044.20
2017-12-13T19:26:46.688Z,99039.60
2017-12-13T19:29:15.271Z,99033.33
2017-12-13T19:31:43.738Z,99024.23
2017-12-13T19:34:12.233Z,99033.12
2017-12-13T19:36:40.822Z,99019.63
2017-12-13T19:39:09.199Z,99014.95
2017-12-13T19:41:38.405Z,99018.03
2017-12-13T19:44:06.770Z,99009.98
2017-12-13T19:46:35.566Z,99008.58
2017-12-13T19:49:03.938Z,98999.12
2017-12-13T19:51:32.282Z,98986.39
2017-12-13T19:54:00.647Z,98981.42
2017-12-13T19:56:28.983Z,98984.37
2017-12-13T19:58:57.299Z,98976.92
2017-12-13T20:01:25.674Z,98967.80
2017-12-13T20:03:54.830Z,98972.87
2017-12-13T20:06:23.141Z,98968.30
2017-12-13T20:08:52.448Z,98950.50
2017-12-13T20:11:20.762Z,98946.17
2017-12-13T20:13:49.122Z,98944.41
2017-12-13T20:16:17.534Z,98933.84
2017-12-13T20:18:45.859Z,98917.84
2017-12-13T20:21:14.953Z,98906.23
2017-12-13T20:23:44.131Z,98899.11
2017-12-13T20:26:12.453Z,98879.66
2017-12-13T20:28:40.787Z,98881.80
2017-12-13T20:31:09.588Z,98873.92
2017-12-13T20:33:38.291Z,98875.81
2017-12-13T20:36:06.795Z,98867.98
2017-12-13T20:38:35.216Z,98870.12
2017-12-13T20:41:03.532Z,98877.05
2017-12-13T20:43:32.129Z,98876.22
2017-12-13T20:46:00.590Z,98876.14
2017-12-13T20:48:29.799Z,98883.15
2017-12-13T20:50:58.196Z,98874.16
2017-12-13T20:53:27.128Z,98852.70
2017-12-13T20:55:55.607Z,98859.95
2017-12-13T20:58:24.027Z,98826.55
2017-12-13T21:00:53.121Z,98817.42
2017-12-13T21:03:22.248Z,98811.75
2017-12-13T21:05:50.607Z,98799.33
2017-12-13T21:08:18.964Z,98783.25
2017-12-13T21:10:48.079Z,98782.02
2017-12-13T21:13:16.449Z,98759.41
2017-12-13T21:15:45.803Z,98749.23
2017-12-13T21:18:14.111Z,98741.83
2017-12-13T21:20:42.418Z,98721.77
2017-12-13T21:23:10.792Z,98720.20
2017-12-13T21:25:39.893Z,98713.87
2017-12-13T21:28:08.234Z,98711.11
2017-12-13T21:30:36.620Z,98708.25
2017-12-13T21:33:04.974Z,98700.02
2017-12-13T21:35:33.339Z,98689.65
2017-12-13T21:38:01.773Z,98694.50
2017-12-13T21:40:30.891Z,98702.87
2017-12-13T21:42:59.190Z,98683.75
2017-12-13T21:45:27.606Z,98681.48
2017-12-13T21:47:55.958Z,98665.64
2017-12-13T21:50:24.296Z,98653.02
2017-12-13T21:52:52.666Z,98657.98
2017-12-13T21:55:21.760Z,98644.21
2017-12-13T21:57:50.858Z,98639.40
2017-12-13T22:00:20.231Z,98627.72
2017-12-13T22:02:48.559Z,98638.70
2017-12-13T22:05:28.775Z,98616.74
2017-12-13T22:07:57.075Z,98608.66
2017-12-13T22:10:26.126Z,98615.08
2017-12-13T22:12:54.484Z,98606.48
2017-12-13T22:15:22.795Z,98607.19
2017-12-13T22:17:51.093Z,98594.34
2017-12-13T22:20:19.646Z,98580.41
2017-12-13T22:22:47.985Z,98579.92
2017-12-13T22:25:16.373Z,98570.69
2017-12-13T22:27:44.689Z,98549.92
2017-12-13T22:30:13.842Z,98542.16
2017-12-13T22:32:42.197Z,98535.56
2017-12-13T22:35:10.526Z,98524.52
2017-12-13T22:37:38.834Z,98515.00
2017-12-13T22:40:07.140Z,98519.15
2017-12-13T22:45:33.494Z,98486.64
2017-12-13T22:48:02.189Z,98477.63
2017-12-13T22:50:30.498Z,98474.16
2017-12-13T22:52:58.799Z,98473.19
2017-12-13T22:55:28.066Z,98455.84
2017-12-13T22:57:56.415Z,98453.86
2017-12-13T23:00:37.326Z,98441.75
2017-12-13T23:03:05.918Z,98437.73
2017-12-13T23:05:34.278Z,98437.50
2017-12-13T23:08:02.628Z,98424.51
2017-12-13T23:10:32.446Z,98414.89
2017-12-13T23:13:00.785Z,98392.66
2017-12-13T23:15:29.122Z,98389.70
2017-12-13T23:17:57.440Z,98386.00
2017-12-13T23:20:25.757Z,98390.81
2017-12-13T23:22:55.747Z,98381.52
2017-12-13T23:25:24.068Z,98371.03
2017-12-13T23:27:52.486Z,98358.09
2017-12-13T23:30:20.834Z,98353.80
2017-12-13T23:32:49.146Z,98342.69
2017-12-13T23:35:17.448Z,98331.16
2017-12-13T23:37:46.181Z,98323.08
2017-12-13T23:40:14.543Z,98314.30
2017-12-13T23:42:42.846Z,98309.92
2017-12-13T23:45:11.266Z,98298.97
2017-12-13T23:47:40.331Z,98300.32
2017-12-13T23:50:08.680Z,98301.30
2017-12-13T23:52:37.092Z,98291.42
2017-12-13T23:55:05.409Z,98286.42
2017-12-13T23:57:33.715Z,98281.85
